Time;durP1;ratioP1;P1;durP2;ratioP2;P2;SDS_P1;SDS_P2;PMS_P1;PMS_P2;Temp;Humidity;BMP_temperature;BMP_pressure;BME280_temperature;BME280_humidity;BME280_pressure;Samples;Min_cycle;Max_cycle;Signal;HPM_P1;HPM_P2
2022/05/17 00:00:10;;;;;;;3.60;2.08;;;;;;;14.17;44.79;101220.45;1731870;82;21037;-80
2022/05/17 00:02:36;;;;;;;4.10;1.95;;;;;;;14.12;44.86;101219.25;1732563;82;21622;-80
2022/05/17 00:05:04;;;;;;;4.37;1.90;;;;;;;14.07;44.87;101217.63;1709244;82;21053;-81
2022/05/17 00:07:30;;;;;;;3.85;1.98;;;;;;;14.01;44.91;101217.34;1714851;82;21009;-81
2022/05/17 00:09:56;;;;;;;3.12;1.82;;;;;;;13.98;44.95;101221.75;1729170;82;21300;-81
2022/05/17 00:12:22;;;;;;;2.83;1.57;;;;;;;13.95;44.99;101229.61;1732675;82;20965;-81
2022/05/17 00:14:48;;;;;;;6.37;1.80;;;;;;;13.90;44.99;101233.16;1732749;82;21240;-80
2022/05/17 00:17:14;;;;;;;3.70;1.90;;;;;;;13.86;45.01;101234.55;1733151;82;21512;-80
2022/05/17 00:19:40;;;;;;;2.83;1.90;;;;;;;13.82;45.06;101240.25;1716951;81;21060;-79
2022/05/17 00:22:07;;;;;;;5.70;1.57;;;;;;;13.80;45.09;101238.56;1682628;83;21087;-80
2022/05/17 00:24:34;;;;;;;10.48;1.85;;;;;;;13.78;45.12;101236.44;1703039;82;21096;-80
2022/05/17 00:27:00;;;;;;;2.75;1.62;;;;;;;13.76;45.15;101231.72;1712712;82;21391;-79
2022/05/17 00:29:26;;;;;;;3.53;1.93;;;;;;;13.72;45.20;101226.16;1732452;82;21024;-79
2022/05/17 00:31:52;;;;;;;3.63;1.60;;;;;;;13.71;45.21;101221.41;1732747;82;20937;-80
2022/05/17 00:34:18;;;;;;;3.62;1.50;;;;;;;13.70;45.23;101213.64;1722262;82;21052;-80
2022/05/17 00:36:44;;;;;;;1.87;1.63;;;;;;;13.66;45.22;101200.28;1703556;82;20854;-80
2022/05/17 00:39:10;;;;;;;2.40;1.37;;;;;;;13.62;45.26;101196.89;1702907;82;26733;-78
2022/05/17 00:41:36;;;;;;;5.47;1.33;;;;;;;13.59;45.28;101208.20;1717492;82;21426;-78
2022/05/17 00:47:02;;;;;;;3.52;1.50;;;;;;;13.49;45.34;101205.39;1709342;82;21021;-79
2022/05/17 00:49:39;;;;;;;5.17;1.62;;;;;;;13.41;45.40;101203.37;1727478;82;20973;-81
2022/05/17 00:52:23;;;;;;;5.58;1.60;;;;;;;13.37;45.44;101206.05;1732586;82;21025;-81
2022/05/17 00:54:54;;;;;;;3.52;1.57;;;;;;;13.34;45.47;101210.86;1721146;82;21020;-80
2022/05/17 00:57:51;;;;;;;3.00;2.12;;;;;;;13.30;45.51;101213.09;1703680;82;21340;-80
2022/05/17 01:00:19;;;;;;;2.50;1.65;;;;;;;13.25;45.52;101210.58;1707517;82;21016;-80
2022/05/17 01:02:51;;;;;;;;;;;;;;;13.19;45.55;101207.23;1713640;82;20945;-81
2022/05/17 01:05:19;;;;;;;3.02;1.45;;;;;;;13.15;45.76;101205.09;1681835;84;20200;-81
2022/05/17 01:07:50;;;;;;;2.60;1.57;;;;;;;13.09;45.59;101198.70;1695765;84;21057;-80
2022/05/17 01:10:16;;;;;;;4.65;1.72;;;;;;;13.05;45.63;101198.34;1686896;84;21010;-80
2022/05/17 01:12:42;;;;;;;3.60;1.43;;;;;;;13.00;45.67;101203.22;1721572;82;21829;-80
2022/05/17 01:15:11;;;;;;;4.45;1.20;;;;;;;12.95;45.67;101206.34;1705197;82;21029;-80
2022/05/17 01:17:40;;;;;;;8.78;1.50;;;;;;;12.90;45.71;101197.32;1720098;81;20957;-80
2022/05/17 01:20:13;;;;;;;2.17;1.20;;;;;;;12.84;45.73;101199.58;1703365;82;20993;-80
2022/05/17 01:22:39;;;;;;;1.87;1.07;;;;;;;12.77;45.78;101201.84;1706992;83;21008;-80
2022/05/17 01:25:06;;;;;;;1.97;1.50;;;;;;;12.71;45.85;101192.86;1708100;84;22408;-81
2022/05/17 01:27:49;;;;;;;1.92;1.35;;;;;;;12.68;45.88;101199.39;1710202;82;21057;-79
2022/05/17 01:30:22;;;;;;;2.70;1.30;;;;;;;12.60;45.90;101195.61;1703772;82;21037;-80
2022/05/17 01:32:48;;;;;;;2.50;1.35;;;;;;;12.54;45.94;101197.44;1711869;82;20961;-80
2022/05/17 01:35:15;;;;;;;6.50;1.50;;;;;;;12.50;46.01;101192.73;1737862;82;22494;-81
2022/05/17 01:37:41;;;;;;;3.42;1.50;;;;;;;12.46;46.05;101185.91;1716375;82;21418;-80
2022/05/17 01:40:10;;;;;;;1.77;1.25;;;;;;;12.44;46.05;101186.81;1708000;82;21004;-81
2022/05/17 01:42:36;;;;;;;2.42;1.32;;;;;;;12.39;46.09;101187.31;1710804;82;21048;-81
2022/05/17 01:45:03;;;;;;;2.27;1.20;;;;;;;12.35;46.10;101198.17;1736166;82;20969;-81
2022/05/17 01:47:30;;;;;;;6.35;1.50;;;;;;;12.31;46.21;101201.69;1716251;82;22258;-81
2022/05/17 01:49:56;;;;;;;1.77;1.12;;;;;;;12.29;46.25;101201.29;1708361;83;21012;-81
2022/05/17 01:52:22;;;;;;;5.22;1.90;;;;;;;12.28;46.28;101196.98;1707793;83;20941;-81
2022/05/17 01:54:48;;;;;;;4.15;1.70;;;;;;;12.24;46.33;101198.75;1711817;82;21438;-81
2022/05/17 01:57:15;;;;;;;3.70;1.03;;;;;;;12.21;46.39;101207.44;1730969;82;21452;-80
2022/05/17 01:59:40;;;;;;;8.87;1.43;;;;;;;12.18;46.42;101200.13;1737131;82;21398;-81
2022/05/17 02:02:07;;;;;;;2.57;1.50;;;;;;;12.14;46.43;101200.61;1737676;82;21733;-80
2022/05/17 02:04:34;;;;;;;5.00;1.67;;;;;;;12.12;46.52;101191.14;1723029;82;21455;-81
2022/05/17 02:07:01;;;;;;;3.52;1.55;;;;;;;12.10;46.58;101192.45;1708920;82;21386;-81
2022/05/17 02:09:27;;;;;;;2.73;1.70;;;;;;;12.10;46.63;101198.08;1710279;80;20905;-81
2022/05/17 02:11:54;;;;;;;5.23;1.83;;;;;;;12.09;46.67;101195.92;1725622;82;20898;-81
2022/05/17 02:14:20;;;;;;;2.50;1.80;;;;;;;12.08;46.74;101202.42;1720340;82;20914;-80
2022/05/17 02:16:47;;;;;;;2.80;1.60;;;;;;;12.09;46.82;101205.44;1736881;82;21395;-81
2022/05/17 02:19:13;;;;;;;5.90;1.90;;;;;;;12.08;46.86;101204.58;1728324;82;20911;-81
2022/05/17 02:21:39;;;;;;;2.07;1.57;;;;;;;12.08;46.91;101211.06;1726279;82;20930;-81
2022/05/17 02:24:06;;;;;;;3.27;1.60;;;;;;;12.08;46.97;101209.77;1738863;82;21535;-81
2022/05/17 02:26:33;;;;;;;;;;;;;;;12.09;47.03;101212.77;1738253;82;20949;-80
2022/05/17 02:28:59;;;;;;;1.70;1.37;;;;;;;12.07;47.48;101215.83;1711089;82;20963;-81
2022/05/17 02:31:25;;;;;;;3.07;1.57;;;;;;;12.07;47.14;101227.92;1734111;82;21426;-80
2022/05/17 02:33:51;;;;;;;2.03;1.30;;;;;;;12.06;47.19;101226.21;1737851;82;20886;-81
2022/05/17 02:36:17;;;;;;;2.57;1.50;;;;;;;12.05;47.26;101224.50;1718158;82;20942;-81
2022/05/17 02:38:43;;;;;;;3.33;1.50;;;;;;;12.05;47.36;101225.35;1708465;82;20977;-80
2022/05/17 02:41:11;;;;;;;1.40;1.30;;;;;;;12.05;47.39;101230.53;1721937;82;21076;-80
2022/05/17 02:43:38;;;;;;;3.33;1.80;;;;;;;12.02;47.45;101231.02;1737270;82;21083;-81
2022/05/17 02:46:05;;;;;;;2.80;1.60;;;;;;;12.00;47.45;101226.28;1727520;82;22192;-82
2022/05/17 02:48:31;;;;;;;4.37;1.80;;;;;;;11.97;47.55;101227.18;1733382;82;20954;-79
2022/05/17 02:51:00;;;;;;;4.13;1.93;;;;;;;11.95;47.64;101231.99;1696209;82;20976;-80
2022/05/17 02:53:26;;;;;;;3.98;1.87;;;;;;;11.94;47.66;101238.91;1735082;82;21411;-79
2022/05/17 02:55:53;;;;;;;2.10;1.55;;;;;;;11.90;47.71;101236.79;1716664;82;21112;-79
2022/05/17 02:58:19;;;;;;;4.40;2.10;;;;;;;11.85;47.79;101233.39;1707245;82;21004;-79
2022/05/17 03:00:45;;;;;;;5.27;1.90;;;;;;;11.84;47.82;101236.86;1714063;82;21060;-79
2022/05/17 03:03:11;;;;;;;3.20;1.83;;;;;;;11.80;47.90;101231.29;1725548;83;22140;-80
2022/05/17 03:05:38;;;;;;;3.80;1.97;;;;;;;11.80;47.98;101227.41;1718627;82;21448;-81
2022/05/17 03:08:08;;;;;;;4.87;1.95;;;;;;;11.78;48.04;101229.16;1729705;82;21064;-80
2022/05/17 03:10:34;;;;;;;2.35;1.70;;;;;;;11.77;48.10;101213.63;1701821;84;21033;-81
2022/05/17 03:13:01;;;;;;;2.67;1.63;;;;;;;11.77;48.17;101231.32;1737748;82;21461;-82
2022/05/17 03:15:27;;;;;;;3.05;1.85;;;;;;;11.77;48.24;101236.50;1700274;84;21066;-82
2022/05/17 03:17:56;;;;;;;2.20;1.75;;;;;;;11.79;48.30;101242.97;1676418;85;21066;-81
2022/05/17 03:20:23;;;;;;;5.22;2.05;;;;;;;11.80;48.39;101251.16;1715559;80;20913;-81
2022/05/17 03:22:49;;;;;;;2.45;1.65;;;;;;;11.80;48.44;101242.95;1727846;82;21521;-81
2022/05/17 03:25:15;;;;;;;4.13;2.17;;;;;;;11.79;48.57;101235.19;1735156;82;21453;-81
2022/05/17 03:27:41;;;;;;;4.60;1.73;;;;;;;11.81;48.60;101246.40;1735202;82;21616;-81
2022/05/17 03:30:08;;;;;;;2.47;1.60;;;;;;;11.84;48.66;101251.55;1731210;82;21114;-81
2022/05/17 03:32:34;;;;;;;3.30;1.85;;;;;;;11.85;48.72;101258.45;1721626;82;21032;-80
2022/05/17 03:35:00;;;;;;;5.30;2.10;;;;;;;11.88;48.73;101261.86;1705675;83;20975;-80
2022/05/17 03:37:26;;;;;;;2.27;1.60;;;;;;;11.92;48.83;101268.73;1711697;82;20886;-81
2022/05/17 03:39:52;;;;;;;3.37;2.00;;;;;;;11.96;48.84;101273.87;1709851;82;21469;-80
2022/05/17 03:42:19;;;;;;;4.47;1.97;;;;;;;11.98;48.87;101272.09;1721581;82;21051;-80
2022/05/17 03:44:45;;;;;;;5.22;1.90;;;;;;;11.99;48.92;101271.22;1709238;82;21473;-80
2022/05/17 03:47:11;;;;;;;3.52;1.80;;;;;;;11.99;49.00;101272.08;1730413;82;20893;-81
2022/05/17 03:49:41;;;;;;;2.43;1.70;;;;;;;12.02;49.08;101272.48;1734408;82;20898;-81
2022/05/17 03:52:09;;;;;;;3.12;1.60;;;;;;;12.03;49.11;101269.88;1727224;82;20929;-80
2022/05/17 03:54:37;;;;;;;2.27;1.70;;;;;;;12.03;49.20;101264.69;1729975;82;21536;-80
2022/05/17 03:57:05;;;;;;;4.47;1.80;;;;;;;12.08;49.22;101268.09;1734534;82;21001;-81
2022/05/17 03:59:31;;;;;;;6.65;1.85;;;;;;;12.11;49.29;101267.20;1732743;82;21010;-81
2022/05/17 04:01:57;;;;;;;2.37;1.60;;;;;;;12.13;49.34;101270.19;1729864;81;21050;-80
2022/05/17 04:04:24;;;;;;;5.43;2.03;;;;;;;12.19;49.41;101274.44;1726223;82;21039;-81
2022/05/17 04:06:52;;;;;;;4.55;1.80;;;;;;;12.21;49.45;101269.66;1701704;82;21144;-80
2022/05/17 04:09:18;;;;;;;6.60;1.80;;;;;;;12.27;49.52;101267.44;1731737;81;21088;-80
2022/05/17 04:11:44;;;;;;;4.10;1.47;;;;;;;12.28;49.51;101262.66;1734262;81;20946;-80
2022/05/17 04:14:10;;;;;;;5.03;1.77;;;;;;;12.30;49.57;101259.62;1726831;82;21471;-78
2022/05/17 04:16:39;;;;;;;5.60;1.87;;;;;;;12.34;49.59;101265.19;1730923;82;21155;-79
2022/05/17 04:19:06;;;;;;;3.02;1.87;;;;;;;12.36;49.65;101276.83;1726498;82;20958;-75
2022/05/17 04:21:34;;;;;;;3.45;1.72;;;;;;;12.37;49.73;101271.63;1726236;82;27688;-76
2022/05/17 04:24:00;;;;;;;4.42;1.50;;;;;;;12.43;49.77;101266.36;1735348;82;20925;-77
2022/05/17 04:26:26;;;;;;;2.70;1.82;;;;;;;12.51;49.79;101268.83;1678551;84;21470;-77
2022/05/17 04:28:52;;;;;;;2.63;2.10;;;;;;;12.56;49.90;101269.62;1731168;82;21041;-77
2022/05/17 04:31:19;;;;;;;7.03;1.90;;;;;;;12.62;49.92;101273.42;1696642;83;21104;-78
2022/05/17 04:33:45;;;;;;;2.70;1.87;;;;;;;12.70;49.95;101274.63;1691556;83;21122;-76
2022/05/17 04:36:12;;;;;;;5.25;2.52;;;;;;;12.67;49.94;101253.91;1670465;85;21051;-76
2022/05/17 04:38:38;;;;;;;4.67;1.77;;;;;;;12.85;50.02;101276.55;1733670;81;26377;-76
2022/05/17 04:41:05;;;;;;;7.25;2.05;;;;;;;12.89;50.01;101277.37;1694738;83;21069;-76
2022/05/17 04:43:32;;;;;;;2.95;2.12;;;;;;;12.95;50.03;101269.49;1746196;80;21033;-77
2022/05/17 04:45:58;;;;;;;2.47;2.00;;;;;;;13.00;50.11;101266.83;1736723;81;21621;-76
2022/05/17 04:48:24;;;;;;;2.70;1.82;;;;;;;13.07;50.10;101267.97;1734849;81;21056;-77
2022/05/17 04:50:52;;;;;;;3.10;2.40;;;;;;;13.14;50.15;101272.19;1700343;84;21090;-76
2022/05/17 04:53:18;;;;;;;3.70;1.85;;;;;;;13.18;50.15;101269.13;1668109;84;21145;-76
2022/05/17 04:55:45;;;;;;;4.20;2.00;;;;;;;13.19;50.20;101269.55;1700396;82;21105;-78
2022/05/17 04:58:11;;;;;;;4.90;2.60;;;;;;;13.23;50.22;101271.22;1657017;84;21511;-77
2022/05/17 05:00:37;;;;;;;2.52;1.65;;;;;;;13.31;50.28;101272.39;1696625;83;21073;-76
2022/05/17 05:03:06;;;;;;;7.03;2.15;;;;;;;13.43;50.34;101274.34;1659064;84;21046;-77
2022/05/17 05:05:32;;;;;;;4.03;2.07;;;;;;;13.56;50.31;101265.86;1734778;82;21358;-75
2022/05/17 05:07:58;;;;;;;5.27;2.03;;;;;;;13.54;50.31;101243.80;1728647;82;20977;-75
2022/05/17 05:10:24;;;;;;;3.05;2.12;;;;;;;13.75;50.37;101275.48;1734021;82;21119;-75
2022/05/17 05:12:50;;;;;;;5.07;2.50;;;;;;;13.86;50.33;101269.64;1733983;82;21526;-75
2022/05/17 05:15:17;;;;;;;4.47;2.23;;;;;;;13.98;50.36;101275.05;1731148;80;21084;-75
2022/05/17 05:17:44;;;;;;;5.62;1.75;;;;;;;14.03;50.31;101277.13;1733635;82;21033;-75
2022/05/17 05:20:15;;;;;;;3.80;1.52;;;;;;;14.10;50.32;101282.59;1734690;82;21032;-76
2022/05/17 05:22:42;;;;;;;3.85;1.90;;;;;;;14.19;50.28;101275.91;1734413;80;21322;-75
2022/05/17 05:25:10;;;;;;;4.67;1.80;;;;;;;14.27;50.22;101280.95;1733479;82;23808;-75
2022/05/17 05:27:38;;;;;;;4.12;2.00;;;;;;;14.33;50.24;101281.68;1733555;82;20968;-75
2022/05/17 05:30:08;;;;;;;4.83;1.52;;;;;;;14.43;50.23;101283.23;1727635;81;21228;-75
2022/05/17 05:32:34;;;;;;;5.62;1.80;;;;;;;14.48;50.15;101277.94;1733316;82;20898;-75
2022/05/17 05:35:00;;;;;;;4.73;1.50;;;;;;;14.56;50.19;101280.75;1734613;82;20874;-75
2022/05/17 05:37:26;;;;;;;3.03;1.77;;;;;;;14.63;50.10;101276.72;1732307;81;20843;-75
2022/05/17 05:39:52;;;;;;;2.80;1.40;;;;;;;14.73;50.13;101282.98;1734057;82;20863;-75
2022/05/17 05:42:18;;;;;;;5.07;1.47;;;;;;;14.84;50.06;101291.41;1733786;81;20931;-75
2022/05/17 05:44:47;;;;;;;2.70;1.50;;;;;;;14.98;50.06;101294.15;1733430;82;20886;-75
2022/05/17 05:47:16;;;;;;;12.85;1.72;;;;;;;15.06;50.00;101296.98;1695863;83;20907;-75
2022/05/17 05:49:47;;;;;;;3.17;1.30;;;;;;;15.17;49.93;101296.25;1695090;84;20903;-75
2022/05/17 05:52:13;;;;;;;2.72;1.25;;;;;;;15.23;49.89;101296.11;1689217;84;20951;-75
2022/05/17 05:54:40;;;;;;;3.70;1.50;;;;;;;15.30;49.82;101294.21;1669026;85;20911;-75
2022/05/17 05:57:06;;;;;;;1.95;1.15;;;;;;;15.40;49.81;101297.00;1734301;82;20898;-75
2022/05/17 05:59:32;;;;;;;3.02;1.30;;;;;;;15.47;49.69;101292.49;1732659;82;21462;-75
2022/05/17 06:01:58;;;;;;;4.25;1.30;;;;;;;15.51;49.61;101292.83;1731787;82;20894;-75
2022/05/17 06:04:28;;;;;;;2.23;1.30;;;;;;;15.53;49.59;101288.42;1730769;82;21602;-75
2022/05/17 06:06:56;;;;;;;1.60;1.07;;;;;;;15.51;49.44;101289.77;1613360;80;9999806;-75
2022/05/17 06:09:24;;;;;;;3.25;1.00;;;;;;;15.46;49.32;101294.69;1726605;82;21128;-75
2022/05/17 06:11:50;;;;;;;5.67;1.55;;;;;;;15.44;49.40;101298.64;1734532;82;20922;-75
2022/05/17 06:14:16;;;;;;;2.23;1.27;;;;;;;15.47;49.32;101306.83;1727572;82;20941;-75
2022/05/17 06:16:43;;;;;;;5.23;1.53;;;;;;;15.48;49.15;101312.00;1733986;82;20953;-75
2022/05/17 06:19:09;;;;;;;3.08;1.65;;;;;;;15.41;49.09;101306.98;1733583;81;20850;-75
2022/05/17 06:21:36;;;;;;;4.00;1.40;;;;;;;15.37;49.02;101298.83;1733824;82;21379;-75
2022/05/17 06:24:09;;;;;;;5.92;1.20;;;;;;;15.38;48.93;101303.14;1714350;82;20906;-75
2022/05/17 06:26:36;;;;;;;2.90;1.42;;;;;;;15.44;48.94;101303.84;1734381;82;20858;-75
2022/05/17 06:29:03;;;;;;;6.58;1.60;;;;;;;15.45;48.77;101304.26;1732783;82;20925;-75
2022/05/17 06:31:30;;;;;;;3.80;1.75;;;;;;;15.50;48.67;101308.91;1732263;81;20946;-75
2022/05/17 06:33:56;;;;;;;3.05;1.50;;;;;;;15.51;48.63;101311.92;1728641;81;21463;-75
2022/05/17 06:36:22;;;;;;;4.78;1.40;;;;;;;15.55;48.59;101314.01;1708278;82;20914;-75
2022/05/17 06:38:48;;;;;;;4.30;1.27;;;;;;;15.62;48.49;101306.89;1710880;82;21611;-75
2022/05/17 06:41:14;;;;;;;4.27;1.60;;;;;;;15.65;48.44;101310.72;1726016;82;20937;-75
2022/05/17 06:43:40;;;;;;;3.23;1.80;;;;;;;15.75;48.49;101318.27;1734640;82;20890;-75
2022/05/17 06:46:08;;;;;;;2.00;1.37;;;;;;;15.86;48.38;101316.23;1733617;81;21596;-76
2022/05/17 06:48:34;;;;;;;3.67;1.62;;;;;;;15.97;48.27;101321.62;1733725;82;20894;-75
2022/05/17 06:51:06;;;;;;;3.17;1.40;;;;;;;16.03;48.15;101326.67;1732914;82;21030;-77
2022/05/17 06:53:32;;;;;;;2.67;1.62;;;;;;;16.06;48.11;101323.53;1720270;82;20922;-76
2022/05/17 06:55:59;;;;;;;2.03;1.37;;;;;;;16.19;48.14;101333.15;1724465;82;20937;-75
2022/05/17 06:58:28;;;;;;;4.33;1.60;;;;;;;16.32;48.04;101332.36;1730968;81;20929;-75
2022/05/17 07:00:54;;;;;;;3.75;1.47;;;;;;;16.40;47.74;101336.47;1739872;80;20911;-75
2022/05/17 07:03:20;;;;;;;4.20;1.40;;;;;;;16.47;47.91;101343.67;1733246;82;21291;-75
2022/05/17 07:05:46;;;;;;;5.47;1.43;;;;;;;16.62;47.83;101344.54;1728916;82;20901;-75
2022/05/17 07:08:12;;;;;;;5.47;1.60;;;;;;;16.70;47.76;101345.63;1734558;82;20860;-75
2022/05/17 07:13:22;;;;;;;1.85;1.47;;;;;;;16.80;47.57;101354.45;1722268;82;20903;-76
2022/05/17 07:15:50;;;;;;;5.53;1.70;;;;;;;16.81;47.52;101352.69;1728959;82;20847;-76
2022/05/17 07:18:21;;;;;;;5.55;1.75;;;;;;;16.82;47.42;101355.70;1718502;81;20905;-76
2022/05/17 07:20:48;;;;;;;1.72;1.27;;;;;;;16.75;47.33;101364.63;1727524;81;21367;-76
2022/05/17 07:23:15;;;;;;;4.37;1.30;;;;;;;16.73;47.41;101361.20;1710503;82;20921;-76
2022/05/17 07:25:44;;;;;;;2.75;1.92;;;;;;;16.73;47.27;101368.58;1733482;82;20962;-76
2022/05/17 07:28:22;;;;;;;4.72;1.37;;;;;;;16.74;47.29;101361.16;1733473;81;20874;-76
2022/05/17 07:30:46;;;;;;;3.20;1.22;;;;;;;16.83;47.28;101366.56;1741698;81;20868;-76
2022/05/17 07:33:12;;;;;;;4.15;1.20;;;;;;;16.89;47.20;101361.16;1725928;82;20906;-76
2022/05/17 07:35:38;;;;;;;8.05;1.85;;;;;;;16.85;47.04;101370.84;1730797;82;21061;-76
2022/05/17 07:38:06;;;;;;;3.70;1.50;;;;;;;16.84;47.03;101373.05;1728606;81;21069;-76
2022/05/17 07:40:33;;;;;;;4.53;1.52;;;;;;;16.91;47.03;101371.10;1716652;82;20996;-75
2022/05/17 07:43:00;;;;;;;7.92;1.80;;;;;;;16.99;46.94;101378.72;1723967;82;21108;-75
2022/05/17 07:45:26;;;;;;;;;;;;;;;16.99;46.84;101383.94;1724365;82;21089;-75
2022/05/17 07:47:52;;;;;;;9.13;1.60;;;;;;;16.93;46.57;101386.28;1726331;82;20298;-75
2022/05/17 07:50:19;;;;;;;2.42;1.05;;;;;;;16.87;46.53;101382.55;1732967;82;21092;-75
2022/05/17 07:52:45;;;;;;;5.05;1.82;;;;;;;16.80;46.64;101384.93;1730521;82;20985;-75
2022/05/17 07:55:13;;;;;;;3.10;1.67;;;;;;;16.79;46.58;101385.83;1730626;82;21064;-75
2022/05/17 07:57:39;;;;;;;;;;;;;;;16.78;46.48;101390.66;1734298;82;21494;-75
2022/05/17 08:00:08;;;;;;;2.20;1.22;;;;;;;16.76;46.35;101391.14;1734555;82;20179;-75
2022/05/17 08:02:34;;;;;;;2.80;1.40;;;;;;;16.77;46.47;101397.62;1733517;81;20921;-75
2022/05/17 08:05:00;;;;;;;2.30;1.30;;;;;;;16.81;46.37;101391.87;1734399;82;21029;-76
2022/05/17 08:07:26;;;;;;;2.63;1.60;;;;;;;16.79;46.36;101391.91;1734473;82;20954;-75
2022/05/17 08:12:25;;;;;;;4.08;1.40;;;;;;;16.98;46.34;101391.38;1891529;74;22837;-77
2022/05/17 08:14:51;;;;;;;4.70;1.57;;;;;;;17.06;46.25;101397.22;1782582;79;21035;-75
2022/05/17 08:17:17;;;;;;;5.10;1.90;;;;;;;17.16;46.18;101399.94;1801528;78;21469;-75
2022/05/17 08:19:44;;;;;;;3.05;1.15;;;;;;;17.23;46.06;101394.92;1796830;77;21556;-75
2022/05/17 08:22:14;;;;;;;4.47;1.10;;;;;;;17.29;45.83;101400.41;1784346;78;21540;-75
2022/05/17 08:27:37;;;;;;;4.72;0.88;;;;;;;17.41;45.73;101401.34;1771474;80;20933;-75
2022/05/17 08:30:12;;;;;;;4.65;1.17;;;;;;;17.56;45.67;101406.08;1771477;80;20951;-76
2022/05/17 08:35:51;;;;;;;5.00;1.00;;;;;;;17.74;45.41;101415.09;1793490;78;20929;-75
2022/05/17 08:38:28;;;;;;;4.12;1.02;;;;;;;17.82;45.21;101412.63;1802774;78;20936;-75
2022/05/17 08:40:59;;;;;;;3.02;1.05;;;;;;;17.88;45.09;101412.87;1769969;79;20956;-75
2022/05/17 08:43:57;;;;;;;2.27;0.88;;;;;;;18.04;45.07;101413.22;1779218;79;20889;-75
2022/05/17 08:47:06;;;;;;;2.37;1.00;;;;;;;18.15;44.93;101417.18;1763357;80;20936;-75
2022/05/17 08:49:44;;;;;;;3.20;1.20;;;;;;;18.30;44.45;101416.21;1747035;80;20873;-75
2022/05/17 08:52:15;;;;;;;2.90;1.25;;;;;;;18.34;44.70;101419.13;1781402;79;20939;-75
2022/05/17 08:55:14;;;;;;;3.80;1.00;;;;;;;18.49;44.62;101418.12;1772819;80;20874;-75
2022/05/17 08:57:49;;;;;;;1.22;1.00;;;;;;;18.48;44.36;101415.56;1773987;79;20988;-75
2022/05/17 09:00:29;;;;;;;3.67;1.20;;;;;;;18.48;44.31;101415.11;1743075;80;21059;-76
2022/05/17 09:03:29;;;;;;;1.80;1.02;;;;;;;18.54;44.26;101425.82;1753395;80;21563;-75
2022/05/17 09:06:39;;;;;;;1.75;0.90;;;;;;;18.57;44.10;101424.86;1768710;79;21078;-74
2022/05/17 09:09:23;;;;;;;1.45;1.00;;;;;;;18.66;43.93;101425.41;1754409;80;21144;-74
2022/05/17 09:12:01;;;;;;;2.55;0.90;;;;;;;18.67;43.87;101424.50;1747486;80;20917;-74
2022/05/17 09:14:32;;;;;;;1.92;0.85;;;;;;;18.63;43.74;101429.45;1779694;79;20996;-74
2022/05/17 09:17:05;;;;;;;6.85;1.00;;;;;;;18.67;43.64;101432.36;1669877;80;5000697;-74
2022/05/17 09:19:31;;;;;;;2.65;1.10;;;;;;;18.60;43.47;101427.37;1665189;84;21510;-74
2022/05/17 09:22:01;;;;;;;1.57;0.90;;;;;;;18.54;43.40;101427.13;1700707;83;20894;-74
2022/05/17 09:24:32;;;;;;;4.53;1.12;;;;;;;18.61;43.42;101429.11;1703818;82;21552;-76
2022/05/17 09:27:06;;;;;;;5.08;1.22;;;;;;;18.65;43.25;101421.08;1705089;83;21056;-75
2022/05/17 09:29:44;;;;;;;3.17;1.05;;;;;;;18.70;43.11;101423.53;1699695;82;21063;-75
2022/05/17 09:32:12;;;;;;;4.90;1.00;;;;;;;18.76;43.02;101429.83;1711399;83;21615;-75
2022/05/17 09:34:43;;;;;;;1.30;1.10;;;;;;;18.76;42.62;101425.44;1703227;83;21473;-75
2022/05/17 09:37:17;;;;;;;3.10;1.30;;;;;;;18.72;42.70;101424.30;1687839;83;21497;-75
2022/05/17 09:39:48;;;;;;;1.50;1.00;;;;;;;18.73;42.52;101428.17;1684561;83;21073;-76
2022/05/17 09:42:37;;;;;;;3.87;1.10;;;;;;;18.73;42.46;101429.48;1702288;83;21053;-75
2022/05/17 09:45:12;;;;;;;2.60;1.40;;;;;;;18.74;42.49;101423.34;1706476;82;21048;-75
2022/05/17 09:47:58;;;;;;;0.90;0.70;;;;;;;18.87;42.47;101411.94;1700547;83;21008;-75
2022/05/17 09:53:40;;;;;;;1.55;0.90;;;;;;;18.99;42.24;101410.17;1701862;83;21128;-75
2022/05/17 09:56:07;;;;;;;1.75;1.05;;;;;;;19.01;42.11;101409.66;1684117;83;21070;-75
2022/05/17 09:58:41;;;;;;;1.32;0.90;;;;;;;19.05;41.99;101421.73;1697942;83;21454;-75
2022/05/17 10:01:28;;;;;;;4.62;1.12;;;;;;;19.04;41.88;101408.23;1698972;83;20929;-75
2022/05/17 10:04:11;;;;;;;4.15;0.90;;;;;;;19.09;41.91;101416.77;1698045;83;21398;-75
2022/05/17 10:06:45;;;;;;;2.30;1.10;;;;;;;19.15;41.76;101414.37;1703714;82;21038;-75
2022/05/17 10:09:32;;;;;;;1.40;0.82;;;;;;;19.20;41.64;101416.81;1697471;83;20960;-75
2022/05/17 10:12:11;;;;;;;;;;;;;;;19.23;41.50;101418.86;1700133;83;20921;-75
2022/05/17 10:14:47;;;;;;;7.20;1.10;;;;;;;19.25;41.46;101419.63;1696505;83;20141;-75
2022/05/17 10:17:38;;;;;;;1.80;0.68;;;;;;;19.34;41.47;101419.27;1697109;83;20996;-75
2022/05/17 10:20:18;;;;;;;11.65;1.20;;;;;;;19.39;41.33;101419.94;1696127;83;20945;-75
2022/05/17 10:23:17;;;;;;;2.67;1.05;;;;;;;19.46;41.34;101425.34;1698067;83;20910;-75
2022/05/17 10:25:57;;;;;;;2.20;0.90;;;;;;;19.49;41.19;101416.48;1698415;83;21342;-75
2022/05/17 10:28:56;;;;;;;1.95;0.95;;;;;;;19.49;41.03;101409.47;1693915;83;21394;-75
2022/05/17 10:31:43;;;;;;;2.12;0.80;;;;;;;19.52;40.99;101402.42;1658208;85;21012;-75
2022/05/17 10:34:25;;;;;;;4.95;1.00;;;;;;;19.63;40.98;101413.34;1694513;83;21611;-75
2022/05/17 10:36:55;;;;;;;2.15;0.98;;;;;;;19.71;40.79;101416.51;1692952;83;21134;-75
2022/05/17 10:39:40;;;;;;;2.15;0.80;;;;;;;19.80;40.65;101413.02;1695342;83;21056;-75
2022/05/17 10:42:07;;;;;;;2.22;0.70;;;;;;;19.83;40.69;101411.58;1695786;83;20917;-75
2022/05/17 10:44:53;;;;;;;6.05;0.80;;;;;;;20.00;40.71;101413.95;1668456;84;21398;-75
2022/05/17 10:47:33;;;;;;;46.33;3.65;;;;;;;20.05;40.48;101408.05;1679213;83;20968;-75
2022/05/17 10:50:46;;;;;;;1.45;0.80;;;;;;;20.04;40.40;101411.14;1683831;83;21022;-75
2022/05/17 10:53:35;;;;;;;2.20;1.00;;;;;;;20.04;40.11;101408.97;1648362;83;21036;-76
2022/05/17 10:56:22;;;;;;;2.72;1.07;;;;;;;19.98;40.24;101397.42;1699800;81;21080;-76
2022/05/17 10:59:28;;;;;;;1.42;1.20;;;;;;;20.11;40.24;101404.70;1649293;85;21556;-76
2022/05/17 11:02:31;;;;;;;4.20;0.88;;;;;;;20.20;39.98;101400.83;1696528;83;21433;-75
2022/05/17 11:05:15;;;;;;;3.22;0.88;;;;;;;20.32;39.92;101408.14;1634476;86;21138;-75
2022/05/17 11:08:17;;;;;;;1.22;0.60;;;;;;;20.43;39.92;101392.80;1610899;86;21101;-75
2022/05/17 11:10:52;;;;;;;1.95;0.78;;;;;;;20.53;39.70;101397.19;1621402;86;21225;-75
2022/05/17 11:13:26;;;;;;;1.87;0.80;;;;;;;20.54;39.56;101405.92;1607886;86;21467;-75
2022/05/17 11:16:15;;;;;;;2.85;0.80;;;;;;;20.60;39.56;101406.50;1643283;86;21578;-77
2022/05/17 11:18:57;;;;;;;4.75;0.80;;;;;;;20.71;39.54;101404.70;1620352;86;21651;-77
2022/05/17 11:21:35;;;;;;;3.35;0.80;;;;;;;20.82;39.43;101399.31;1617671;87;21532;-77
2022/05/17 11:24:14;;;;;;;4.92;0.82;;;;;;;21.01;39.39;101403.26;1629475;86;21618;-78
2022/05/17 11:27:00;;;;;;;1.15;0.78;;;;;;;21.13;39.14;101398.73;1625227;86;21144;-76
2022/05/17 11:29:49;;;;;;;1.77;0.98;;;;;;;21.18;39.00;101401.62;1635833;86;21928;-76
2022/05/17 11:32:32;;;;;;;5.67;0.93;;;;;;;21.20;38.95;101393.19;1620270;86;21754;-75
2022/05/17 11:35:07;;;;;;;20.15;1.70;;;;;;;21.27;38.84;101389.37;1614613;86;21090;-75
2022/05/17 11:37:38;;;;;;;2.55;0.90;;;;;;;21.32;38.58;101399.19;1671554;83;21382;-75
2022/05/17 11:40:10;;;;;;;2.40;0.85;;;;;;;21.30;38.54;101401.06;1701522;82;21323;-75
2022/05/17 11:43:40;;;;;;;2.75;0.78;;;;;;;21.32;38.45;101404.44;1662811;85;21421;-75
2022/05/17 11:45:22;;;;;;;4.83;0.80;;;;;;;21.33;38.33;101408.31;1687628;83;21453;-75
2022/05/17 11:47:58;;;;;;;6.65;0.80;;;;;;;21.31;38.21;101414.61;1696494;83;20890;-76
2022/05/17 11:50:35;;;;;;;3.77;0.88;;;;;;;21.23;38.09;101410.17;1705926;82;21504;-76
2022/05/17 11:53:27;;;;;;;3.50;1.07;;;;;;;21.19;38.05;101411.21;1653478;85;20932;-76
2022/05/17 11:56:32;;;;;;;1.60;0.90;;;;;;;21.17;37.90;101412.59;1698541;83;21517;-76
2022/05/17 11:59:12;;;;;;;5.20;0.85;;;;;;;21.10;37.77;101421.70;1700517;83;21350;-75
2022/05/17 12:01:43;;;;;;;4.03;0.80;;;;;;;20.98;37.59;101420.95;1699671;83;21398;-75